Time;durP1;ratioP1;P1;durP2;ratioP2;P2;SDS_P1;SDS_P2;PMS_P1;PMS_P2;Temp;Humidity;BMP_temperature;BMP_pressure;BME280_temperature;BME280_humidity;BME280_pressure;Samples;Min_cycle;Max_cycle;Signal;HPM_P1;HPM_P2
2022/08/04 00:01:29;;;;;;;16.02;14.43;;;;;;;18.89;100.00;100597.38;1706643;84;21206;-93
2022/08/04 00:04:09;;;;;;;16.15;14.65;;;;;;;18.90;100.00;100593.75;1706577;84;21644;-93
2022/08/04 00:06:46;;;;;;;17.07;15.58;;;;;;;18.90;100.00;100591.91;1706974;83;21007;-93
2022/08/04 00:09:31;;;;;;;16.27;14.55;;;;;;;18.93;100.00;100595.25;1706617;84;21007;-93
2022/08/04 00:12:03;;;;;;;16.77;15.10;;;;;;;18.95;100.00;100594.58;1700626;84;21103;-92
2022/08/04 00:14:34;;;;;;;;;;;;;;;18.99;100.00;100602.47;1709403;84;21882;-93
2022/08/04 00:17:06;;;;;;;18.25;16.35;;;;;;;19.00;100.00;100600.97;1703989;84;20134;-93
2022/08/04 00:19:43;;;;;;;19.30;17.45;;;;;;;19.00;100.00;100597.02;1705995;84;21035;-93
2022/08/04 00:22:13;;;;;;;19.23;17.52;;;;;;;19.01;100.00;100601.81;1703641;84;21048;-93
2022/08/04 00:24:41;;;;;;;19.90;18.00;;;;;;;19.00;100.00;100602.80;1707005;83;21027;-93
2022/08/04 00:27:12;;;;;;;20.88;18.77;;;;;;;19.00;100.00;100602.80;1706723;84;21786;-93
2022/08/04 00:29:43;;;;;;;21.55;19.45;;;;;;;19.02;100.00;100614.02;1725490;81;21014;-93
2022/08/04 00:32:13;;;;;;;21.87;19.90;;;;;;;19.03;100.00;100605.08;1727529;81;21116;-93
2022/08/04 00:34:42;;;;;;;23.12;20.92;;;;;;;19.03;100.00;100607.72;1727280;82;21050;-93
2022/08/04 00:37:10;;;;;;;20.15;18.25;;;;;;;19.01;100.00;100607.89;1727173;81;21030;-93
2022/08/04 00:39:39;;;;;;;23.55;20.35;;;;;;;19.02;100.00;100619.29;1727631;83;21128;-91
2022/08/04 00:43:00;;;;;;;23.40;21.07;;;;;;;19.02;100.00;100621.93;1727058;83;21544;-93
2022/08/04 00:45:47;;;;;;;24.50;22.07;;;;;;;19.01;100.00;100630.33;1726651;81;21065;-94
2022/08/04 00:48:48;;;;;;;22.07;20.00;;;;;;;19.00;100.00;100625.23;1724229;83;21006;-94
2022/08/04 00:51:42;;;;;;;23.52;20.97;;;;;;;19.00;100.00;100629.99;1720367;83;21046;-93
2022/08/04 00:54:38;;;;;;;24.23;22.07;;;;;;;19.00;100.00;100629.19;1727805;83;21820;-93
2022/08/04 00:57:17;;;;;;;26.17;23.47;;;;;;;19.00;100.00;100633.95;1724813;83;21116;-93
2022/08/04 00:59:55;;;;;;;24.80;22.40;;;;;;;18.99;100.00;100634.13;1721429;81;20982;-93
2022/08/04 01:02:54;;;;;;;25.45;22.90;;;;;;;18.93;100.00;100636.95;1728661;81;21045;-92
2022/08/04 01:05:53;;;;;;;24.87;22.32;;;;;;;18.89;100.00;100631.16;1719720;83;21057;-93
2022/08/04 01:09:03;;;;;;;27.15;24.37;;;;;;;18.85;100.00;100631.66;1728713;81;21558;-93
2022/08/04 01:11:52;;;;;;;25.97;23.42;;;;;;;18.84;100.00;100630.02;1728806;81;21033;-93
2022/08/04 01:14:43;;;;;;;24.98;22.60;;;;;;;18.82;100.00;100637.30;1710993;83;21587;-94
2022/08/04 01:17:21;;;;;;;24.20;21.80;;;;;;;18.80;100.00;100633.48;1728293;81;21002;-94
2022/08/04 01:20:10;;;;;;;22.27;20.08;;;;;;;18.81;100.00;100635.64;1729037;81;21061;-93
2022/08/04 01:23:20;;;;;;;25.60;23.30;;;;;;;18.84;100.00;100636.61;1728744;83;21281;-93
2022/08/04 01:26:16;;;;;;;24.12;21.87;;;;;;;18.87;100.00;100632.33;1724812;81;21491;-93
2022/08/04 01:29:08;;;;;;;24.67;22.32;;;;;;;18.87;100.00;100637.09;1699389;82;21001;-93
2022/08/04 01:32:01;;;;;;;26.37;23.20;;;;;;;18.87;100.00;100645.00;1697781;83;21558;-93
2022/08/04 01:34:38;;;;;;;25.17;22.62;;;;;;;18.89;100.00;100649.63;1697847;82;20961;-94
2022/08/04 01:37:17;;;;;;;25.45;22.95;;;;;;;18.88;100.00;100650.61;1691584;82;21431;-93
2022/08/04 01:40:00;;;;;;;25.30;23.00;;;;;;;18.89;100.00;100646.98;1695128;83;21014;-93
2022/08/04 01:42:32;;;;;;;26.05;23.50;;;;;;;18.89;100.00;100645.67;1695627;83;21025;-94
2022/08/04 01:45:08;;;;;;;25.27;22.70;;;;;;;18.87;100.00;100638.41;1697856;83;21009;-94
2022/08/04 01:47:42;;;;;;;25.68;23.35;;;;;;;18.86;100.00;100640.75;1698084;83;21053;-93
2022/08/04 01:50:13;;;;;;;26.07;23.67;;;;;;;18.85;100.00;100627.70;1694585;83;21268;-94
2022/08/04 01:52:44;;;;;;;24.40;21.93;;;;;;;18.85;100.00;100635.14;1697707;83;21009;-93
2022/08/04 01:55:16;;;;;;;23.10;21.10;;;;;;;18.85;100.00;100634.30;1698007;83;21728;-93
2022/08/04 01:57:51;;;;;;;24.07;21.73;;;;;;;18.85;100.00;100634.30;1698024;83;21008;-93
2022/08/04 02:00:28;;;;;;;24.85;22.55;;;;;;;18.85;100.00;100633.82;1697969;83;21033;-93
2022/08/04 02:02:57;;;;;;;25.72;23.30;;;;;;;18.86;100.00;100634.16;1698177;83;21178;-93
2022/08/04 02:05:26;;;;;;;24.50;21.90;;;;;;;18.87;100.00;100639.73;1697920;83;21468;-93
2022/08/04 02:08:23;;;;;;;25.32;22.73;;;;;;;18.89;100.00;100640.39;1696656;82;21022;-93
2022/08/04 02:11:14;;;;;;;24.23;21.93;;;;;;;18.90;100.00;100648.63;1668540;84;21045;-94
2022/08/04 02:14:03;;;;;;;26.15;23.60;;;;;;;18.90;100.00;100644.68;1664259;84;21036;-93
2022/08/04 02:16:49;;;;;;;24.77;22.22;;;;;;;18.94;100.00;100649.66;1664253;84;21292;-93
2022/08/04 02:19:34;;;;;;;23.83;21.70;;;;;;;18.95;100.00;100653.95;1695924;83;21010;-93
2022/08/04 02:22:12;;;;;;;25.75;23.20;;;;;;;18.95;100.00;100655.27;1694963;83;21009;-94
2022/08/04 02:24:52;;;;;;;25.43;23.12;;;;;;;18.96;100.00;100646.33;1694841;83;21052;-94
2022/08/04 02:27:28;;;;;;;26.25;23.80;;;;;;;18.96;100.00;100637.94;1691622;83;21010;-93
2022/08/04 02:30:03;;;;;;;25.00;22.50;;;;;;;18.94;100.00;100643.87;1700341;81;21926;-94
2022/08/04 02:32:38;;;;;;;26.42;23.83;;;;;;;18.93;100.00;100640.09;1703367;82;21150;-93
2022/08/04 02:35:26;;;;;;;24.98;22.67;;;;;;;18.94;100.00;100639.11;1703528;84;21015;-93
2022/08/04 02:38:02;;;;;;;25.70;23.38;;;;;;;18.94;100.00;100641.74;1706326;82;21069;-93
2022/08/04 02:40:30;;;;;;;24.18;21.77;;;;;;;18.98;100.00;100650.95;1656784;82;21639;-93
2022/08/04 02:43:03;;;;;;;24.55;22.25;;;;;;;18.98;100.00;100646.52;1706667;82;21130;-94
2022/08/04 02:45:35;;;;;;;24.10;22.02;;;;;;;19.00;100.00;100649.78;1706689;83;21494;-94
2022/08/04 02:48:04;;;;;;;24.02;21.90;;;;;;;19.02;100.00;100648.31;1705157;83;21053;-94
2022/08/04 02:50:34;;;;;;;25.62;22.90;;;;;;;19.05;100.00;100651.91;1708490;82;21038;-92
2022/08/04 02:53:04;;;;;;;24.52;22.17;;;;;;;19.08;100.00;100652.39;1708108;83;21094;-94
2022/08/04 02:55:35;;;;;;;24.07;21.85;;;;;;;19.13;100.00;100661.13;1708048;82;21168;-94
2022/08/04 02:58:08;;;;;;;25.30;22.37;;;;;;;19.14;100.00;100654.86;1713856;82;20966;-93
2022/08/04 03:00:38;;;;;;;25.77;23.35;;;;;;;19.17;100.00;100653.69;1707999;83;21030;-94
2022/08/04 03:03:22;;;;;;;23.67;21.48;;;;;;;19.18;100.00;100652.70;1707930;82;21108;-94
2022/08/04 03:06:13;;;;;;;24.25;22.02;;;;;;;19.19;100.00;100649.88;1707753;82;21492;-93
2022/08/04 03:09:02;;;;;;;;;;;;;;;19.22;100.00;100644.27;1710342;84;21331;-94
2022/08/04 03:12:06;;;;;;;23.05;20.75;;;;;;;19.27;100.00;100654.83;1706993;82;20173;-95
2022/08/04 03:15:27;;;;;;;26.23;23.67;;;;;;;19.28;100.00;100652.48;1658079;84;21029;-93
2022/08/04 03:18:16;;;;;;;25.40;23.00;;;;;;;19.31;100.00;100654.28;1708058;82;21105;-93
2022/08/04 03:21:13;;;;;;;25.55;23.12;;;;;;;19.33;100.00;100654.13;1707964;82;21588;-94
2022/08/04 03:24:10;;;;;;;28.40;25.45;;;;;;;19.35;100.00;100664.00;1708140;82;21174;-94
2022/08/04 03:27:01;;;;;;;26.70;24.20;;;;;;;19.36;100.00;100659.05;1704417;82;21011;-94
2022/08/04 03:29:57;;;;;;;25.92;23.57;;;;;;;19.37;100.00;100656.73;1708145;82;21614;-93
2022/08/04 03:32:57;;;;;;;26.45;23.85;;;;;;;19.38;100.00;100662.34;1698177;82;21018;-93
2022/08/04 03:35:55;;;;;;;28.00;25.37;;;;;;;19.40;100.00;100665.64;1707642;82;21050;-93
2022/08/04 03:39:00;;;;;;;27.52;24.75;;;;;;;19.42;100.00;100663.66;1708228;82;21140;-92
2022/08/04 03:42:04;;;;;;;29.63;26.68;;;;;;;19.44;100.00;100662.97;1707797;83;21054;-93
2022/08/04 03:45:06;;;;;;;29.07;26.42;;;;;;;19.45;100.00;100659.33;1640265;84;21051;-93
2022/08/04 03:48:24;;;;;;;28.25;25.50;;;;;;;19.50;100.00;100665.42;1708559;82;21048;-91
2022/08/04 03:54:29;;;;;;;31.00;28.15;;;;;;;19.60;100.00;100656.80;1708125;84;21870;-94
2022/08/04 03:57:41;;;;;;;32.65;29.45;;;;;;;19.64;100.00;100655.94;1708219;83;21021;-94
2022/08/04 04:00:17;;;;;;;32.50;29.50;;;;;;;19.63;100.00;100652.47;1708299;82;21062;-94
2022/08/04 04:03:19;;;;;;;32.03;29.00;;;;;;;19.68;100.00;100650.14;1707789;82;21046;-94
2022/08/04 04:06:07;;;;;;;34.88;31.48;;;;;;;19.71;100.00;100654.25;1705074;83;21041;-94
2022/08/04 04:09:08;;;;;;;32.95;29.95;;;;;;;19.75;100.00;100648.92;1705329;82;21143;-93
2022/08/04 04:12:28;;;;;;;32.48;29.48;;;;;;;19.78;100.00;100647.27;1705739;84;21050;-95
2022/08/04 04:15:19;;;;;;;30.40;27.60;;;;;;;19.79;100.00;100648.91;1705343;82;21043;-92
2022/08/04 04:18:23;;;;;;;29.55;26.77;;;;;;;19.82;100.00;100644.61;1703490;83;21031;-91
2022/08/04 04:21:07;;;;;;;29.27;26.60;;;;;;;19.86;100.00;100644.59;1706970;83;21073;-91
2022/08/04 04:24:01;;;;;;;27.58;24.98;;;;;;;19.92;100.00;100645.72;1705082;82;22031;-91
2022/08/04 04:26:58;;;;;;;27.37;24.95;;;;;;;19.98;100.00;100645.52;1704186;83;21509;-91
2022/08/04 04:29:51;;;;;;;26.57;24.12;;;;;;;20.00;100.00;100646.14;1706291;84;21016;-95
2022/08/04 04:32:41;;;;;;;28.05;25.30;;;;;;;19.97;100.00;100650.48;1706270;83;20960;-94
2022/08/04 04:35:30;;;;;;;28.42;25.88;;;;;;;19.95;100.00;100651.15;1699962;84;21103;-94
2022/08/04 04:38:28;;;;;;;27.77;25.15;;;;;;;19.92;100.00;100651.01;1701879;82;21162;-93
2022/08/04 04:41:27;;;;;;;26.60;24.05;;;;;;;19.92;100.00;100656.77;1706374;84;21591;-95
2022/08/04 04:44:26;;;;;;;27.05;24.43;;;;;;;19.95;100.00;100657.75;1706231;83;21084;-93
2022/08/04 04:47:08;;;;;;;30.45;27.65;;;;;;;20.01;100.00;100655.72;1706269;83;21028;-96
2022/08/04 04:50:13;;;;;;;29.23;26.52;;;;;;;20.03;100.00;100659.02;1703164;83;21023;-95
2022/08/04 04:52:45;;;;;;;30.72;27.87;;;;;;;19.99;100.00;100651.13;1706284;84;21797;-94
2022/08/04 04:55:30;;;;;;;29.75;26.95;;;;;;;20.01;100.00;100661.84;1703201;84;21534;-95
2022/08/04 04:58:00;;;;;;;30.65;27.75;;;;;;;20.01;100.00;100661.84;1706147;83;21091;-96
2022/08/04 05:00:52;;;;;;;31.55;28.62;;;;;;;20.02;100.00;100660.02;1706408;84;21565;-96
2022/08/04 05:03:47;;;;;;;30.75;27.87;;;;;;;20.00;100.00;100662.84;1706191;83;21569;-95
2022/08/04 05:06:23;;;;;;;31.05;27.95;;;;;;;19.97;100.00;100667.66;1704712;83;21132;-95
2022/08/04 05:09:07;;;;;;;31.12;28.15;;;;;;;19.92;100.00;100664.70;1704024;84;21510;-94
2022/08/04 05:11:46;;;;;;;30.23;27.32;;;;;;;19.94;100.00;100671.96;1703996;83;21075;-94
2022/08/04 05:14:29;;;;;;;28.30;25.60;;;;;;;20.00;100.00;100676.53;1652762;83;21036;-96
2022/08/04 05:17:10;;;;;;;30.37;27.48;;;;;;;20.05;100.00;100687.91;1709216;82;21114;-94
2022/08/04 05:19:45;;;;;;;30.97;27.70;;;;;;;20.07;100.00;100685.91;1704153;84;21257;-94
2022/08/04 05:22:34;;;;;;;32.00;29.07;;;;;;;20.10;100.00;100686.38;1703447;83;21047;-92
2022/08/04 05:25:24;;;;;;;32.38;29.32;;;;;;;20.13;100.00;100698.42;1702246;84;20983;-95
2022/08/04 05:28:17;;;;;;;32.63;29.50;;;;;;;20.11;100.00;100700.44;1703673;83;21003;-95
2022/08/04 05:30:56;;;;;;;34.18;30.72;;;;;;;20.13;100.00;100696.61;1706273;82;21018;-96
2022/08/04 05:33:50;;;;;;;32.93;29.92;;;;;;;20.15;100.00;100699.88;1702279;84;21270;-95
2022/08/04 05:36:24;;;;;;;32.85;29.85;;;;;;;20.21;100.00;100702.84;1635094;83;21046;-95
2022/08/04 05:38:53;;;;;;;35.33;32.00;;;;;;;20.26;100.00;100701.80;1707408;82;21065;-94
2022/08/04 05:41:22;;;;;;;33.92;30.62;;;;;;;20.31;100.00;100706.07;1707201;82;21584;-95
2022/08/04 05:43:49;;;;;;;34.73;31.40;;;;;;;20.38;100.00;100709.65;1708234;82;21093;-95
2022/08/04 05:46:18;;;;;;;34.05;30.85;;;;;;;20.47;100.00;100709.88;1707719;82;21269;-94
2022/08/04 05:48:46;;;;;;;31.37;28.38;;;;;;;20.56;100.00;100707.16;1707757;83;21003;-95
2022/08/04 05:51:14;;;;;;;36.73;32.98;;;;;;;20.68;100.00;100715.00;1701479;82;21042;-93
2022/08/04 05:53:45;;;;;;;32.50;29.02;;;;;;;20.83;100.00;100714.23;1708861;82;21035;-93
2022/08/04 05:56:15;;;;;;;34.05;30.75;;;;;;;20.93;100.00;100713.47;1706628;82;21615;-92
2022/08/04 05:58:44;;;;;;;31.50;28.38;;;;;;;21.02;100.00;100704.93;1701676;82;21618;-93
2022/08/04 06:01:14;;;;;;;33.25;29.80;;;;;;;21.08;100.00;100704.20;1706889;82;21031;-93
2022/08/04 06:03:44;;;;;;;31.75;28.73;;;;;;;21.22;100.00;100702.07;1707632;83;21945;-93
2022/08/04 06:06:13;;;;;;;33.45;30.15;;;;;;;21.31;100.00;100710.73;1706775;82;21097;-93
2022/08/04 06:08:41;;;;;;;30.40;27.55;;;;;;;21.38;100.00;100711.63;1708592;82;21129;-93
2022/08/04 06:11:17;;;;;;;36.93;33.38;;;;;;;21.43;100.00;100709.23;1706427;82;21540;-94
2022/08/04 06:13:56;;;;;;;34.10;31.00;;;;;;;21.51;100.00;100714.14;1707902;82;21018;-93
2022/08/04 06:16:27;;;;;;;31.30;28.30;;;;;;;21.50;100.00;100713.82;1707598;84;21662;-93
2022/08/04 06:18:56;;;;;;;34.45;31.05;;;;;;;21.51;100.00;100711.49;1685253;82;21077;-93
2022/08/04 06:21:27;;;;;;;39.78;36.05;;;;;;;21.59;100.00;100715.39;1709808;82;21638;-93
2022/08/04 06:23:56;;;;;;;35.08;31.82;;;;;;;21.70;100.00;100717.55;1699150;82;21137;-93
2022/08/04 06:26:25;;;;;;;32.83;29.60;;;;;;;21.85;100.00;100715.35;1706294;82;21066;-93
2022/08/04 06:28:54;;;;;;;31.57;28.70;;;;;;;22.00;100.00;100714.80;1705747;82;21604;-93
2022/08/04 06:34:13;;;;;;;29.40;26.70;;;;;;;22.34;100.00;100710.63;1660957;84;21096;-94
2022/08/04 06:36:42;;;;;;;31.55;28.73;;;;;;;22.59;100.00;100708.92;1662422;84;21292;-92
2022/08/04 06:39:13;;;;;;;29.12;26.48;;;;;;;22.74;100.00;100711.98;1694481;83;21101;-93
2022/08/04 06:41:42;;;;;;;30.68;27.73;;;;;;;22.87;100.00;100708.59;1664425;84;21104;-92
2022/08/04 06:44:12;;;;;;;27.67;25.17;;;;;;;23.04;100.00;100708.61;1657336;85;21090;-93
2022/08/04 06:46:42;;;;;;;24.80;22.37;;;;;;;23.16;100.00;100699.58;1641385;86;22062;-93
2022/08/04 06:49:13;;;;;;;28.67;26.07;;;;;;;23.24;100.00;100699.45;1664393;85;21155;-93
2022/08/04 06:51:42;;;;;;;30.05;27.25;;;;;;;23.28;100.00;100695.36;1655741;86;21065;-92
2022/08/04 06:54:10;;;;;;;32.05;29.15;;;;;;;23.34;100.00;100698.27;1649881;86;21054;-92
2022/08/04 06:56:39;;;;;;;30.08;27.17;;;;;;;23.47;100.00;100696.98;1653209;85;21109;-93
2022/08/04 06:59:08;;;;;;;29.60;26.77;;;;;;;23.60;100.00;100702.33;1628738;86;21157;-93
2022/08/04 07:01:37;;;;;;;30.12;27.32;;;;;;;23.67;100.00;100696.23;1639412;86;21866;-93
2022/08/04 07:04:06;;;;;;;31.75;28.75;;;;;;;23.70;100.00;100685.19;1630282;85;21544;-94
2022/08/04 07:06:35;;;;;;;31.70;28.52;;;;;;;23.80;100.00;100693.61;1659846;85;21062;-93
2022/08/04 07:09:05;;;;;;;29.15;26.50;;;;;;;23.88;100.00;100691.25;1629535;86;21545;-91
2022/08/04 07:11:33;;;;;;;30.05;26.97;;;;;;;23.96;100.00;100692.95;1639873;84;21590;-91
2022/08/04 07:14:04;;;;;;;28.05;25.45;;;;;;;24.02;100.00;100691.64;1649107;83;21140;-91
2022/08/04 07:16:33;;;;;;;;;;;;;;;24.03;100.00;100685.80;1693304;84;21086;-92
2022/08/04 07:19:01;;;;;;;28.35;25.57;;;;;;;23.99;100.00;100685.38;1657653;84;20197;-92
2022/08/04 07:21:29;;;;;;;29.35;26.77;;;;;;;23.94;100.00;100685.18;1667075;84;21061;-92
2022/08/04 07:23:57;;;;;;;28.55;25.85;;;;;;;23.85;100.00;100687.16;1704103;82;21883;-93
2022/08/04 07:26:28;;;;;;;27.25;24.70;;;;;;;23.84;100.00;100683.39;1704190;82;21288;-92
2022/08/04 07:28:58;;;;;;;;;;;;;;;23.87;100.00;100681.14;1662237;85;21024;-92
2022/08/04 07:31:27;;;;;;;25.85;23.55;;;;;;;23.90;100.00;100683.91;1659279;82;20153;-92
2022/08/04 07:33:55;;;;;;;29.60;26.77;;;;;;;23.96;100.00;100686.30;1638949;85;21097;-93
2022/08/04 07:36:22;;;;;;;28.17;25.43;;;;;;;24.04;100.00;100686.91;1645864;85;21074;-92
2022/08/04 07:38:49;;;;;;;28.12;25.37;;;;;;;24.11;100.00;100690.92;1670025;84;21148;-91
2022/08/04 07:41:23;;;;;;;31.80;28.77;;;;;;;24.19;100.00;100690.72;1667227;84;21030;-92
2022/08/04 07:43:51;;;;;;;34.27;31.07;;;;;;;24.29;100.00;100692.16;1667903;84;21025;-92
2022/08/04 07:46:18;;;;;;;28.92;26.33;;;;;;;24.34;100.00;100689.20;1687273;82;21113;-92
2022/08/04 07:48:45;;;;;;;27.98;25.30;;;;;;;24.40;100.00;100686.20;1701070;82;21665;-93
2022/08/04 07:51:17;;;;;;;28.32;25.72;;;;;;;24.47;100.00;100684.88;1696912;84;21168;-92
2022/08/04 07:53:47;;;;;;;28.57;25.95;;;;;;;24.57;100.00;100691.42;1701828;82;21055;-92
2022/08/04 07:56:16;;;;;;;26.97;24.67;;;;;;;24.78;100.00;100692.25;1697318;82;21012;-91
2022/08/04 07:58:43;;;;;;;26.50;24.00;;;;;;;24.92;100.00;100687.70;1701804;82;21049;-92
2022/08/04 08:01:13;;;;;;;26.17;23.87;;;;;;;25.09;100.00;100690.73;1697717;82;21065;-91
2022/08/04 08:03:46;;;;;;;28.80;26.05;;;;;;;25.19;100.00;100683.12;1723025;80;21594;-92
2022/08/04 08:06:14;;;;;;;29.52;26.87;;;;;;;25.22;100.00;100691.70;1690922;83;21101;-92
2022/08/04 08:08:41;;;;;;;34.58;31.27;;;;;;;25.14;100.00;100690.91;1700939;82;21013;-91
2022/08/04 08:11:10;;;;;;;29.35;26.60;;;;;;;25.10;100.00;100692.38;1701466;84;21061;-91
2022/08/04 08:13:39;;;;;;;29.55;26.93;;;;;;;25.10;100.00;100696.38;1701523;81;21373;-91
2022/08/04 08:16:07;;;;;;;27.48;25.08;;;;;;;25.13;100.00;100686.61;1705486;82;21088;-93
2022/08/04 08:18:34;;;;;;;28.15;25.65;;;;;;;25.19;100.00;100675.63;1706393;82;21080;-92
2022/08/04 08:21:02;;;;;;;27.98;25.48;;;;;;;25.31;100.00;100686.45;1706830;82;21554;-92
2022/08/04 08:23:33;;;;;;;28.40;25.68;;;;;;;25.40;100.00;100685.21;1703052;82;21033;-92
2022/08/04 08:26:01;;;;;;;30.52;27.73;;;;;;;25.45;100.00;100685.38;1694717;81;21124;-92
2022/08/04 08:28:29;;;;;;;27.77;25.20;;;;;;;25.47;100.00;100686.52;1701754;82;21166;-91
2022/08/04 08:30:56;;;;;;;28.67;25.90;;;;;;;25.50;100.00;100689.58;1678454;82;21079;-92
2022/08/04 08:33:25;;;;;;;28.47;25.92;;;;;;;25.58;100.00;100688.50;1714063;81;21593;-91
2022/08/04 08:36:10;;;;;;;28.47;25.95;;;;;;;25.63;100.00;100685.19;1720745;80;21049;-91
2022/08/04 08:38:49;;;;;;;28.05;25.50;;;;;;;25.69;100.00;100681.66;1700427;82;21133;-91
2022/08/04 08:41:55;;;;;;;28.27;25.77;;;;;;;25.82;100.00;100684.27;1707021;82;21155;-91
2022/08/04 08:44:53;;;;;;;27.62;24.92;;;;;;;25.95;100.00;100683.87;1714572;82;21583;-91
2022/08/04 08:47:59;;;;;;;28.80;26.20;;;;;;;26.14;100.00;100690.95;1704818;82;21024;-91
2022/08/04 08:51:00;;;;;;;28.02;25.12;;;;;;;26.35;100.00;100686.78;1665392;83;21003;-92
2022/08/04 08:54:02;;;;;;;27.93;25.40;;;;;;;26.55;100.00;100675.39;1703280;83;22166;-92
2022/08/04 08:56:51;;;;;;;28.17;25.68;;;;;;;26.79;100.00;100682.80;1705815;84;21166;-91
2022/08/04 08:59:49;;;;;;;28.55;25.85;;;;;;;26.99;100.00;100682.58;1703279;82;20958;-91
2022/08/04 09:02:34;;;;;;;28.10;25.50;;;;;;;26.94;100.00;100679.24;1654348;80;21115;-91
2022/08/04 09:05:37;;;;;;;28.02;25.32;;;;;;;26.88;100.00;100676.94;1710956;82;21058;-91
2022/08/04 09:08:22;;;;;;;23.70;21.70;;;;;;;26.81;100.00;100678.87;1703312;82;21604;-91
2022/08/04 09:10:57;;;;;;;22.77;20.72;;;;;;;26.74;100.00;100681.56;1702230;84;21183;-91
2022/08/04 09:13:42;;;;;;;22.67;20.68;;;;;;;26.69;100.00;100681.42;1690747;84;21035;-91
2022/08/04 09:16:31;;;;;;;25.82;23.32;;;;;;;26.63;100.00;100680.14;1687224;83;21105;-91
2022/08/04 09:19:31;;;;;;;24.75;22.55;;;;;;;26.59;100.00;100681.11;1667012;84;21044;-91
2022/08/04 09:22:34;;;;;;;24.83;22.33;;;;;;;26.53;100.00;100684.13;1701805;84;21042;-91
2022/08/04 09:29:04;;;;;;;20.20;18.40;;;;;;;26.56;100.00;100682.90;1671980;84;21097;-92
2022/08/04 09:31:38;;;;;;;20.08;18.37;;;;;;;26.69;100.00;100677.92;1705288;82;21006;-92
2022/08/04 09:34:21;;;;;;;15.25;13.75;;;;;;;26.76;100.00;100682.20;1699104;83;21065;-91
2022/08/04 09:36:57;;;;;;;15.38;13.98;;;;;;;26.79;100.00;100673.45;1709402;83;21050;-86
2022/08/04 09:39:30;;;;;;;15.65;14.13;;;;;;;26.71;100.00;100679.36;1692725;83;21147;-87
2022/08/04 09:42:31;;;;;;;13.53;11.53;;;;;;;26.61;100.00;100678.51;1718488;82;21002;-86
2022/08/04 09:45:10;;;;;;;13.10;11.70;;;;;;;26.52;100.00;100672.34;1714764;83;21052;-88
2022/08/04 09:48:03;;;;;;;12.18;11.18;;;;;;;26.52;100.00;100668.34;1721138;82;21455;-86
2022/08/04 09:50:40;;;;;;;12.25;11.18;;;;;;;26.52;100.00;100665.67;1695911;83;21494;-85
2022/08/04 09:53:23;;;;;;;12.00;10.80;;;;;;;26.48;100.00;100665.83;1707522;83;21963;-86
2022/08/04 09:56:22;;;;;;;13.48;12.28;;;;;;;26.40;100.00;100666.38;1709531;83;21034;-85
2022/08/04 09:59:24;;;;;;;12.05;11.05;;;;;;;26.35;100.00;100664.09;1702155;83;21036;-88
2022/08/04 10:02:00;;;;;;;13.55;12.25;;;;;;;26.26;100.00;100660.87;1705781;82;21041;-85
2022/08/04 10:04:31;;;;;;;13.30;12.00;;;;;;;26.19;100.00;100672.95;1696389;83;21078;-85
2022/08/04 10:07:25;;;;;;;12.55;11.45;;;;;;;26.11;100.00;100668.69;1650747;85;21115;-86
2022/08/04 10:10:20;;;;;;;14.07;12.82;;;;;;;26.04;100.00;100675.91;1660798;85;21549;-85
2022/08/04 10:13:21;;;;;;;14.15;12.68;;;;;;;25.97;100.00;100675.94;1642612;84;21081;-85
2022/08/04 10:16:19;;;;;;;14.00;12.78;;;;;;;25.96;100.00;100679.64;1667871;85;21058;-85
2022/08/04 10:19:16;;;;;;;16.10;14.60;;;;;;;25.97;100.00;100682.61;1650768;85;21125;-86
2022/08/04 10:21:58;;;;;;;15.30;14.00;;;;;;;26.00;100.00;100682.69;1660040;85;21287;-85
2022/08/04 10:25:22;;;;;;;12.15;11.05;;;;;;;26.02;100.00;100682.50;1653406;86;21544;-86
2022/08/04 10:27:59;;;;;;;15.28;13.75;;;;;;;26.04;100.00;100684.44;1660784;85;21610;-85
2022/08/04 10:30:32;;;;;;;14.53;13.32;;;;;;;26.07;100.00;100683.48;1672786;85;21025;-89
2022/08/04 10:33:22;;;;;;;17.55;15.90;;;;;;;26.09;100.00;100677.95;1685450;84;21026;-85
2022/08/04 10:36:00;;;;;;;15.97;14.57;;;;;;;26.08;100.00;100678.45;1681481;85;21255;-86
2022/08/04 10:38:36;;;;;;;16.90;15.48;;;;;;;26.08;100.00;100682.45;1680842;85;21053;-85
2022/08/04 10:41:36;;;;;;;15.83;14.33;;;;;;;26.10;100.00;100677.73;1679300;84;21045;-85
2022/08/04 10:44:52;;;;;;;16.97;15.53;;;;;;;26.11;100.00;100675.89;1668792;85;21487;-86
2022/08/04 10:47:24;;;;;;;15.50;14.05;;;;;;;26.10;100.00;100675.59;1687808;83;21104;-85
2022/08/04 10:50:00;;;;;;;15.18;13.88;;;;;;;26.08;100.00;100671.78;1679504;83;21838;-85
2022/08/04 10:52:35;;;;;;;14.78;13.30;;;;;;;26.01;100.00;100675.52;1678578;83;21148;-85
2022/08/04 10:55:08;;;;;;;14.47;13.22;;;;;;;25.90;100.00;100675.70;1679536;85;21201;-91
2022/08/04 10:57:43;;;;;;;15.65;13.05;;;;;;;25.80;100.00;100676.16;1665261;83;21100;-92
2022/08/04 11:00:19;;;;;;;15.53;14.03;;;;;;;25.76;100.00;100679.77;1699133;83;21539;-92
2022/08/04 11:03:20;;;;;;;15.35;13.90;;;;;;;25.77;100.00;100682.74;1719593;83;22089;-93
2022/08/04 11:05:54;;;;;;;15.98;14.47;;;;;;;25.78;100.00;100684.38;1710046;83;21041;-93
2022/08/04 11:08:35;;;;;;;14.63;13.38;;;;;;;25.81;100.00;100686.63;1703242;82;21102;-93
2022/08/04 11:11:31;;;;;;;14.50;13.22;;;;;;;25.85;100.00;100684.34;1689495;83;21597;-92
2022/08/04 11:14:22;;;;;;;13.38;12.23;;;;;;;25.94;100.00;100684.89;1705469;83;20960;-93
2022/08/04 11:17:09;;;;;;;15.13;13.53;;;;;;;26.14;100.00;100685.61;1715282;83;39899;-93
2022/08/04 11:20:16;;;;;;;15.20;13.80;;;;;;;26.45;100.00;100689.25;1700864;83;21100;-92
2022/08/04 11:23:02;;;;;;;14.38;13.10;;;;;;;26.68;100.00;100681.66;1702440;83;21075;-92
2022/08/04 11:25:44;;;;;;;15.30;13.93;;;;;;;26.83;100.00;100685.31;1701582;83;21109;-92
2022/08/04 11:28:51;;;;;;;15.20;13.90;;;;;;;26.88;100.00;100680.14;1697023;83;21118;-91
2022/08/04 11:31:40;;;;;;;15.23;13.93;;;;;;;26.87;100.00;100677.16;1715498;82;21152;-92
2022/08/04 11:34:26;;;;;;;15.45;14.13;;;;;;;26.97;100.00;100678.78;1713895;82;21014;-91
2022/08/04 11:37:12;;;;;;;14.85;13.40;;;;;;;27.14;100.00;100667.48;1711853;83;21100;-92
2022/08/04 11:39:58;;;;;;;15.78;14.47;;;;;;;27.29;100.00;100659.89;1702266;82;20984;-93
2022/08/04 11:42:38;;;;;;;14.60;13.30;;;;;;;27.43;100.00;100659.77;1699972;83;21071;-94
2022/08/04 11:45:17;;;;;;;15.98;14.58;;;;;;;27.48;100.00;100656.67;1677291;85;21208;-93
2022/08/04 11:47:49;;;;;;;15.25;13.85;;;;;;;27.49;100.00;100648.16;1649361;86;21054;-94
2022/08/04 11:50:40;;;;;;;14.85;13.55;;;;;;;27.45;100.00;100645.62;1712670;83;21022;-91
2022/08/04 11:53:15;;;;;;;15.68;14.38;;;;;;;27.45;100.00;100648.30;1694671;83;21502;-91
2022/08/04 11:55:48;;;;;;;14.70;13.50;;;;;;;27.39;100.00;100638.78;1714885;83;20970;-91
2022/08/04 11:58:17;;;;;;;15.58;14.18;;;;;;;27.38;100.00;100642.50;1695479;82;21067;-92
2022/08/04 12:01:12;;;;;;;15.43;14.13;;;;;;;27.43;100.00;100637.84;1706494;83;21081;-92
2022/08/04 12:04:05;;;;;;;15.48;14.18;;;;;;;27.48;100.00;100635.29;1706180;83;21080;-93
2022/08/04 12:06:50;;;;;;;15.13;13.83;;;;;;;27.52;100.00;100635.14;1713379;82;21069;-92
2022/08/04 12:09:50;;;;;;;14.98;13.68;;;;;;;27.57;100.00;100638.98;1661168;85;21419;-92
2022/08/04 12:12:34;;;;;;;16.82;15.28;;;;;;;27.66;100.00;100638.45;1662080;85;21933;-92
2022/08/04 12:15:45;;;;;;;15.13;13.88;;;;;;;27.75;100.00;100631.42;1660440;85;21101;-92
2022/08/04 12:18:39;;;;;;;16.15;14.73;;;;;;;27.79;100.00;100625.39;1651258;85;20998;-91